Saint Benedict, Kansas
Current Conditions -  °F | °C
As of 1:53 AM on Thursday 29 Jan 2015 (Local Time) from KFNB Reporting Station
Overcast Overcast  
Wind Chill: 31°   Ceiling: 1800
Heat Index: 42°   Visibility: 10mi
Dew Point: 34°   Wind: 30mph
Humidity: 73%   Direction: 330°NNW
Pressure: 30.02"   Gusts: 44mph
Location:  39.8497°N, 96.0411°W
Report Text: KFNB 290753Z AUTO 33026G38KT 10SM OVC018 06/01 A3002 RMK AO2 PK WND 32040/0740 SLP165 T00560011
Loading
Personal Weather Stations






























Interactive Weather Map New forecast layout! Learn more

10-Day Weather Forecast

Advertisements
Track Severe Weather on mobile